Terminal Aerodrome Forecast
Issued by NWS

Home | Current Version | Previous Version | Text Only | Print | Product List | Glossary Off
Versions: 1 2 3 4 5 6 7 8 9 10 11 12 13 14 15 16

969
FTUS43 KFGF 220433 AAA
TAFBJI
TAF AMD
KBJI 220433Z 2205/2224 26007KT P6SM FEW130
      TEMPO 2205/2206 2SM BR
     FM222000 25011KT P6SM SCT200=

USA.gov is the U.S. government's official web portal to all federal, state and local government web resources and services.